createdAt,value
2023-05-17T00:02:01.282Z,14.85
2023-05-17T00:04:29.121Z,11.07
2023-05-17T00:06:56.593Z,14.43
2023-05-17T00:09:24.035Z,7.70
2023-05-17T00:11:51.705Z,10.43
2023-05-17T00:14:19.284Z,10.57
2023-05-17T00:16:46.789Z,18.77
2023-05-17T00:19:14.707Z,12.43
2023-05-17T00:21:42.643Z,14.60
2023-05-17T00:24:10.062Z,20.55
2023-05-17T00:26:37.709Z,16.05
2023-05-17T00:29:05.756Z,15.52
2023-05-17T00:31:33.299Z,15.98
2023-05-17T00:34:00.806Z,18.75
2023-05-17T00:36:28.610Z,14.40
2023-05-17T00:38:56.028Z,15.07
2023-05-17T00:41:23.533Z,11.23
2023-05-17T00:43:51.099Z,14.63
2023-05-17T00:46:18.596Z,10.40
2023-05-17T00:48:46.259Z,11.38
2023-05-17T00:53:43.333Z,10.18
2023-05-17T00:58:40.833Z,8.43
2023-05-17T01:01:08.601Z,11.68
2023-05-17T01:03:37.722Z,14.27
2023-05-17T01:06:06.503Z,10.02
2023-05-17T01:08:36.208Z,17.48
2023-05-17T01:11:14.939Z,11.52
2023-05-17T01:14:33.190Z,11.48
2023-05-17T01:17:14.217Z,9.55
2023-05-17T01:20:31.579Z,11.60
2023-05-17T01:23:20.707Z,11.05
2023-05-17T01:26:05.425Z,10.80
2023-05-17T01:28:34.307Z,14.10
2023-05-17T01:31:04.068Z,10.48
2023-05-17T01:33:32.291Z,11.43
2023-05-17T01:35:59.890Z,9.18
2023-05-17T01:38:27.363Z,10.73
2023-05-17T01:41:40.990Z,8.80
2023-05-17T01:44:27.294Z,9.38
2023-05-17T01:47:09.869Z,13.68
2023-05-17T01:49:40.853Z,7.30
2023-05-17T01:52:26.253Z,11.65
2023-05-17T01:55:26.301Z,8.55
2023-05-17T01:57:56.821Z,13.73
2023-05-17T02:00:27.382Z,11.73
2023-05-17T02:02:55.174Z,12.80
2023-05-17T02:05:22.766Z,17.25
2023-05-17T02:07:50.340Z,8.65
2023-05-17T02:10:18.690Z,9.70
2023-05-17T02:12:47.568Z,9.02
2023-05-17T02:15:16.784Z,11.30
2023-05-17T02:17:44.871Z,9.25
2023-05-17T02:20:13.158Z,11.93
2023-05-17T02:22:40.850Z,10.43
2023-05-17T02:25:09.123Z,9.07
2023-05-17T02:30:04.968Z,6.55
2023-05-17T02:32:34.110Z,4.68
2023-05-17T02:35:01.854Z,13.20
2023-05-17T02:37:29.729Z,11.50
2023-05-17T02:39:57.272Z,8.65
2023-05-17T02:42:24.737Z,9.13
2023-05-17T02:44:54.801Z,8.98
2023-05-17T02:47:22.593Z,8.38
2023-05-17T02:49:50.121Z,6.03
2023-05-17T02:52:17.793Z,13.10
2023-05-17T02:54:45.712Z,6.15
2023-05-17T02:57:13.625Z,9.25
2023-05-17T02:59:41.083Z,7.50
2023-05-17T03:02:08.656Z,13.18
2023-05-17T03:04:37.048Z,8.05
2023-05-17T03:07:07.142Z,6.95
2023-05-17T03:09:35.656Z,10.73
2023-05-17T03:12:04.210Z,6.18
2023-05-17T03:14:34.155Z,8.25
2023-05-17T03:17:02.658Z,5.65
2023-05-17T03:19:31.284Z,9.05
2023-05-17T03:21:58.962Z,10.98
2023-05-17T03:24:26.587Z,11.15
2023-05-17T03:26:54.107Z,13.15
2023-05-17T03:29:22.630Z,11.93
2023-05-17T03:31:51.211Z,10.48
2023-05-17T03:34:18.837Z,8.88
2023-05-17T03:36:46.335Z,5.63
2023-05-17T03:39:13.984Z,8.07
2023-05-17T03:41:42.557Z,7.15
2023-05-17T03:44:11.028Z,9.27
2023-05-17T03:46:38.540Z,6.60
2023-05-17T03:49:06.157Z,7.20
2023-05-17T03:51:34.889Z,14.73
2023-05-17T03:54:02.566Z,13.43
2023-05-17T03:56:31.861Z,10.35
2023-05-17T03:58:59.854Z,11.13
2023-05-17T04:01:30.414Z,12.77
2023-05-17T04:03:58.642Z,13.07
2023-05-17T04:06:27.011Z,14.40
2023-05-17T04:08:55.586Z,6.35
2023-05-17T04:11:26.735Z,17.02
2023-05-17T04:13:56.950Z,10.40
2023-05-17T04:16:25.109Z,7.75
2023-05-17T04:18:53.890Z,20.20
2023-05-17T04:21:21.571Z,7.78
2023-05-17T04:23:50.695Z,6.97
2023-05-17T04:26:18.503Z,5.20
2023-05-17T04:28:46.231Z,15.25
2023-05-17T04:31:17.110Z,8.02
2023-05-17T04:33:46.077Z,18.95
2023-05-17T04:36:13.825Z,12.85
2023-05-17T04:38:42.864Z,13.25
2023-05-17T04:41:13.096Z,7.95
2023-05-17T04:43:43.410Z,6.88
2023-05-17T04:46:18.660Z,9.77
2023-05-17T04:48:47.428Z,7.55
2023-05-17T04:51:15.356Z,7.28
2023-05-17T04:53:43.008Z,9.32
2023-05-17T04:56:15.009Z,8.00
2023-05-17T04:58:42.543Z,7.47
2023-05-17T05:01:11.828Z,13.35
2023-05-17T05:03:40.903Z,12.07
2023-05-17T05:06:10.013Z,5.47
2023-05-17T05:08:37.879Z,8.90
2023-05-17T05:11:08.369Z,5.07
2023-05-17T05:16:07.669Z,5.90
2023-05-17T05:18:37.753Z,8.45
2023-05-17T05:21:05.623Z,6.78
2023-05-17T05:23:33.177Z,9.70
2023-05-17T05:26:01.589Z,9.77
2023-05-17T05:28:29.202Z,6.63
2023-05-17T05:31:00.114Z,6.97
2023-05-17T05:33:34.292Z,4.35
2023-05-17T05:36:02.622Z,6.57
2023-05-17T05:38:30.123Z,3.58
2023-05-17T05:43:27.581Z,5.07
2023-05-17T05:45:55.041Z,7.00
2023-05-17T05:48:23.116Z,4.57
2023-05-17T05:50:50.694Z,9.23
2023-05-17T05:53:19.765Z,7.15
2023-05-17T05:55:55.765Z,2.42
2023-05-17T05:58:23.347Z,5.88
2023-05-17T06:00:51.967Z,5.97
2023-05-17T06:03:19.971Z,6.75
2023-05-17T06:05:48.978Z,5.78
2023-05-17T06:08:16.606Z,12.68
2023-05-17T06:10:44.070Z,8.82
2023-05-17T06:13:11.573Z,2.40
2023-05-17T06:15:39.062Z,7.10
2023-05-17T06:18:06.729Z,2.38
2023-05-17T06:20:34.229Z,3.65
2023-05-17T06:23:02.197Z,4.97
2023-05-17T06:25:29.666Z,7.32
2023-05-17T06:27:57.276Z,8.98
2023-05-17T06:30:24.711Z,7.70
2023-05-17T06:32:52.174Z,7.55
2023-05-17T06:35:19.739Z,9.13
2023-05-17T06:37:47.394Z,7.78
2023-05-17T06:40:16.984Z,4.75
2023-05-17T06:42:45.092Z,7.10
2023-05-17T06:45:14.436Z,5.60
2023-05-17T06:47:41.965Z,3.10
2023-05-17T06:50:10.057Z,4.00
2023-05-17T06:55:05.336Z,6.45
2023-05-17T06:57:33.097Z,15.13
2023-05-17T07:00:00.577Z,3.20
2023-05-17T07:02:32.434Z,5.78
2023-05-17T07:05:01.338Z,4.53
2023-05-17T07:07:31.457Z,6.07
2023-05-17T07:09:59.054Z,6.75
2023-05-17T07:12:26.540Z,15.02
2023-05-17T07:14:54.003Z,5.97
2023-05-17T07:17:21.536Z,12.07
2023-05-17T07:19:51.266Z,10.40
2023-05-17T07:22:19.227Z,3.80
2023-05-17T07:27:14.107Z,9.27
2023-05-17T07:29:42.408Z,7.50
2023-05-17T07:32:10.117Z,6.25
2023-05-17T07:34:37.838Z,3.95
2023-05-17T07:39:32.755Z,4.15
2023-05-17T07:42:00.220Z,7.20
2023-05-17T07:44:27.797Z,5.50
2023-05-17T07:46:55.363Z,7.25
2023-05-17T07:49:24.485Z,17.80
2023-05-17T07:51:52.372Z,11.45
2023-05-17T07:56:57.290Z,7.78
2023-05-17T07:59:24.878Z,12.75
2023-05-17T08:01:54.427Z,5.32
2023-05-17T08:04:24.389Z,2.70
2023-05-17T08:06:53.878Z,5.53
2023-05-17T08:09:21.426Z,7.72
2023-05-17T08:11:48.979Z,13.15
2023-05-17T08:14:17.810Z,9.50
2023-05-17T08:16:49.603Z,5.60
2023-05-17T08:19:17.198Z,6.07
2023-05-17T08:21:46.375Z,4.43
2023-05-17T08:24:13.868Z,3.40
2023-05-17T08:26:41.429Z,32.00
2023-05-17T08:29:11.401Z,8.35
2023-05-17T08:31:38.909Z,3.40
2023-05-17T08:34:06.608Z,9.20
2023-05-17T08:39:02.358Z,10.45
2023-05-17T08:41:32.994Z,9.18
2023-05-17T08:44:00.919Z,7.88
2023-05-17T08:46:29.610Z,11.88
2023-05-17T08:49:00.269Z,3.95
2023-05-17T08:51:30.644Z,13.73
2023-05-17T08:53:58.828Z,14.93
2023-05-17T08:56:28.471Z,4.07
2023-05-17T08:58:58.112Z,5.28
2023-05-17T09:01:27.947Z,4.10
2023-05-17T09:03:56.579Z,11.38
2023-05-17T09:08:55.090Z,4.40
2023-05-17T09:11:29.275Z,7.13
2023-05-17T09:14:01.957Z,2.95
2023-05-17T09:16:35.453Z,4.78
2023-05-17T09:19:06.629Z,10.52
2023-05-17T09:21:37.066Z,4.07
2023-05-17T09:24:07.845Z,3.55
2023-05-17T09:26:45.535Z,10.57
2023-05-17T09:29:16.269Z,10.05
2023-05-17T09:31:44.812Z,2.80
2023-05-17T09:34:12.927Z,5.38
2023-05-17T09:36:46.478Z,3.00
2023-05-17T09:39:15.271Z,3.55
2023-05-17T09:41:45.700Z,3.10
2023-05-17T09:44:15.175Z,8.35
2023-05-17T09:46:47.578Z,4.32
2023-05-17T09:49:17.444Z,8.05
2023-05-17T09:51:50.294Z,4.05
2023-05-17T09:54:18.656Z,4.78
2023-05-17T09:56:59.789Z,3.72
2023-05-17T09:59:29.511Z,23.05
2023-05-17T10:01:59.700Z,10.20
2023-05-17T10:04:31.125Z,15.57
2023-05-17T10:07:01.376Z,5.95
2023-05-17T10:09:35.084Z,2.80
2023-05-17T10:12:03.508Z,16.23
2023-05-17T10:14:32.885Z,5.70
2023-05-17T10:17:03.474Z,18.35
2023-05-17T10:19:32.000Z,38.90
2023-05-17T10:22:11.566Z,21.80
2023-05-17T10:24:51.619Z,33.83
2023-05-17T10:27:21.026Z,46.42
2023-05-17T10:29:50.548Z,36.53
2023-05-17T10:32:23.624Z,24.05
2023-05-17T10:35:02.144Z,23.05
2023-05-17T10:37:34.819Z,37.60
2023-05-17T10:40:02.410Z,26.63
2023-05-17T10:42:32.523Z,24.42
2023-05-17T10:45:01.919Z,17.15
2023-05-17T10:47:33.722Z,7.35
2023-05-17T10:50:05.033Z,31.58
2023-05-17T10:52:32.724Z,31.40
2023-05-17T10:55:00.830Z,14.55
2023-05-17T10:57:50.753Z,24.13
2023-05-17T11:00:29.597Z,17.98
2023-05-17T11:03:17.054Z,18.98
2023-05-17T11:06:13.184Z,17.63
2023-05-17T11:09:18.842Z,9.98
2023-05-17T11:12:16.628Z,7.85
2023-05-17T11:14:53.194Z,7.72
2023-05-17T11:17:44.414Z,6.32
2023-05-17T11:20:27.097Z,6.28
2023-05-17T11:23:05.349Z,3.05
2023-05-17T11:25:37.075Z,10.60
2023-05-17T11:28:17.837Z,8.35
2023-05-17T11:30:51.776Z,8.00
2023-05-17T11:33:33.014Z,5.90
2023-05-17T11:36:07.619Z,8.52
2023-05-17T11:38:35.354Z,7.55
2023-05-17T11:43:55.534Z,32.53
2023-05-17T11:46:24.901Z,9.90
2023-05-17T11:48:53.969Z,11.30
2023-05-17T11:51:24.963Z,8.50
2023-05-17T11:53:57.364Z,5.68
2023-05-17T11:56:39.508Z,7.63
2023-05-17T11:59:11.336Z,23.60
2023-05-17T12:01:49.663Z,5.00
2023-05-17T12:06:56.404Z,4.65
2023-05-17T12:09:24.493Z,1.80
2023-05-17T12:11:52.208Z,5.75
2023-05-17T12:14:21.918Z,7.75
2023-05-17T12:16:58.097Z,6.45
2023-05-17T12:19:28.101Z,9.50
2023-05-17T12:22:08.681Z,6.88
2023-05-17T12:24:42.108Z,5.95
2023-05-17T12:27:10.662Z,4.97
2023-05-17T12:29:39.629Z,9.18
2023-05-17T12:32:09.541Z,6.00
2023-05-17T12:34:37.508Z,12.68
2023-05-17T12:37:10.614Z,10.85
2023-05-17T12:39:40.526Z,7.57
2023-05-17T12:42:09.705Z,5.88
2023-05-17T12:44:37.269Z,4.30
2023-05-17T12:47:04.813Z,6.25
2023-05-17T12:49:39.289Z,14.50
2023-05-17T12:52:07.832Z,5.13
2023-05-17T12:54:35.356Z,6.85
2023-05-17T12:57:16.253Z,5.78
2023-05-17T12:59:53.077Z,9.10
2023-05-17T13:02:21.518Z,4.15
2023-05-17T13:04:49.558Z,8.75
2023-05-17T13:07:24.556Z,6.40
2023-05-17T13:09:52.711Z,7.90
2023-05-17T13:14:52.329Z,4.43
2023-05-17T13:17:34.247Z,5.38
2023-05-17T13:20:02.499Z,2.42
2023-05-17T13:22:32.916Z,4.45
2023-05-17T13:25:00.517Z,8.57
2023-05-17T13:27:30.586Z,7.55
2023-05-17T13:29:58.059Z,5.78
2023-05-17T13:32:26.213Z,4.72
2023-05-17T13:34:53.920Z,8.20
2023-05-17T13:37:21.651Z,5.05
2023-05-17T13:39:54.685Z,8.85
2023-05-17T13:42:22.585Z,8.13
2023-05-17T13:44:50.466Z,2.03
2023-05-17T13:47:17.957Z,8.25
2023-05-17T13:49:45.490Z,6.90
2023-05-17T13:52:13.538Z,4.25
2023-05-17T13:54:41.239Z,9.50
2023-05-17T13:57:08.989Z,5.15
2023-05-17T14:02:04.372Z,8.05
2023-05-17T14:04:32.513Z,5.35
2023-05-17T14:06:59.985Z,6.85
2023-05-17T14:09:30.603Z,3.80
2023-05-17T14:12:00.421Z,4.22
2023-05-17T14:14:29.084Z,6.97
2023-05-17T14:16:59.084Z,7.65
2023-05-17T14:21:53.848Z,8.50
2023-05-17T14:24:21.406Z,15.45
2023-05-17T14:26:48.842Z,4.93
2023-05-17T14:29:16.966Z,3.45
2023-05-17T14:31:44.463Z,10.57
2023-05-17T14:34:12.094Z,5.20
2023-05-17T14:36:39.636Z,8.30
2023-05-17T14:39:07.311Z,7.75
2023-05-17T14:41:34.777Z,18.55
2023-05-17T14:44:02.278Z,13.75
2023-05-17T14:46:29.894Z,6.68
2023-05-17T14:48:57.490Z,7.93
2023-05-17T14:51:25.205Z,9.15
2023-05-17T14:53:54.870Z,4.63
2023-05-17T14:56:22.749Z,9.40
2023-05-17T14:58:50.509Z,5.15
2023-05-17T15:03:45.811Z,6.13
2023-05-17T15:06:13.263Z,5.07
2023-05-17T15:08:40.804Z,6.05
2023-05-17T15:11:09.262Z,7.25
2023-05-17T15:13:37.052Z,6.57
2023-05-17T15:16:06.907Z,9.05
2023-05-17T15:18:34.607Z,8.15
2023-05-17T15:23:30.072Z,11.27
2023-05-17T15:25:57.591Z,7.95
2023-05-17T15:28:25.239Z,8.32
2023-05-17T15:31:03.617Z,9.52
2023-05-17T15:36:01.862Z,10.85
2023-05-17T15:38:31.746Z,6.43
2023-05-17T15:41:06.326Z,6.70
2023-05-17T15:43:35.146Z,10.38
2023-05-17T15:46:02.605Z,11.23
2023-05-17T15:50:58.752Z,13.98
2023-05-17T15:53:28.134Z,10.90
2023-05-17T15:55:56.023Z,6.97
2023-05-17T15:58:33.474Z,8.60
2023-05-17T16:01:05.929Z,11.07
2023-05-17T16:03:34.417Z,9.68
2023-05-17T16:06:04.524Z,19.02
2023-05-17T16:08:32.726Z,9.15
2023-05-17T16:11:02.394Z,6.60
2023-05-17T16:13:31.235Z,11.00
2023-05-17T16:15:59.854Z,12.52
2023-05-17T16:18:27.866Z,16.58
2023-05-17T16:21:05.088Z,5.30
2023-05-17T16:23:32.786Z,4.63
2023-05-17T16:26:02.951Z,9.27
2023-05-17T16:28:37.032Z,9.77
2023-05-17T16:31:06.073Z,9.75
2023-05-17T16:33:37.751Z,5.93
2023-05-17T16:36:05.760Z,8.75
2023-05-17T16:38:33.370Z,10.63
2023-05-17T16:41:04.052Z,3.92
2023-05-17T16:43:31.724Z,12.60
2023-05-17T16:45:59.372Z,5.25
2023-05-17T16:48:26.949Z,12.73
2023-05-17T16:50:55.107Z,11.80
2023-05-17T16:53:23.503Z,14.00
2023-05-17T16:55:50.972Z,11.68
2023-05-17T16:58:18.897Z,18.63
2023-05-17T17:03:13.873Z,10.38
2023-05-17T17:05:41.490Z,12.90
2023-05-17T17:08:08.991Z,14.30
2023-05-17T17:10:36.441Z,6.35
2023-05-17T17:13:04.006Z,12.98
2023-05-17T17:15:31.580Z,9.10
2023-05-17T17:17:59.247Z,6.75
2023-05-17T17:20:26.737Z,9.32
2023-05-17T17:22:54.366Z,11.52
2023-05-17T17:25:24.852Z,14.30
2023-05-17T17:27:53.305Z,13.55
2023-05-17T17:30:21.276Z,13.05
2023-05-17T17:32:48.921Z,34.60
2023-05-17T17:35:16.470Z,61.20
2023-05-17T17:37:43.945Z,43.60
2023-05-17T17:40:12.914Z,31.02
2023-05-17T17:42:42.856Z,26.95
2023-05-17T17:45:11.869Z,20.42
2023-05-17T17:47:39.612Z,27.42
2023-05-17T17:50:07.960Z,14.57
2023-05-17T17:52:36.862Z,21.27
2023-05-17T17:55:04.933Z,16.23
2023-05-17T17:57:33.926Z,17.65
2023-05-17T18:00:01.621Z,21.65
2023-05-17T18:02:31.724Z,11.50
2023-05-17T18:04:59.299Z,14.02
2023-05-17T18:07:26.906Z,13.55
2023-05-17T18:09:57.228Z,16.17
2023-05-17T18:12:27.430Z,27.00
2023-05-17T18:14:55.160Z,18.95
2023-05-17T18:17:22.730Z,16.65
2023-05-17T18:19:50.221Z,30.17
2023-05-17T18:22:18.989Z,17.20
2023-05-17T18:24:46.582Z,15.82
2023-05-17T18:27:14.383Z,18.73
2023-05-17T18:29:42.716Z,29.50
2023-05-17T18:32:10.631Z,17.60
2023-05-17T18:34:38.370Z,27.10
2023-05-17T18:37:05.933Z,17.88
2023-05-17T18:39:33.508Z,14.70
2023-05-17T18:42:00.990Z,14.88
2023-05-17T18:44:28.615Z,11.65
2023-05-17T18:46:57.131Z,15.88
2023-05-17T18:51:54.004Z,15.95
2023-05-17T18:54:21.407Z,27.02
2023-05-17T18:56:48.863Z,15.80
2023-05-17T18:59:16.327Z,17.23
2023-05-17T19:01:44.228Z,17.92
2023-05-17T19:04:11.822Z,13.80
2023-05-17T19:06:41.537Z,10.60
2023-05-17T19:09:11.421Z,13.98
2023-05-17T19:11:39.071Z,11.27
2023-05-17T19:14:06.586Z,13.05
2023-05-17T19:16:34.071Z,11.80
2023-05-17T19:19:01.673Z,11.68
2023-05-17T19:21:29.320Z,10.25
2023-05-17T19:23:56.732Z,12.20
2023-05-17T19:26:24.194Z,13.60
2023-05-17T19:28:51.651Z,9.77
2023-05-17T19:31:19.224Z,13.63
2023-05-17T19:33:49.056Z,19.00
2023-05-17T19:36:16.576Z,12.27
2023-05-17T19:38:44.146Z,15.60
2023-05-17T19:41:11.807Z,16.23
2023-05-17T19:43:39.313Z,12.18
2023-05-17T19:46:10.654Z,13.57
2023-05-17T19:48:38.770Z,13.18
2023-05-17T19:51:06.670Z,16.55
2023-05-17T19:53:50.907Z,15.48
2023-05-17T19:56:19.805Z,11.75
2023-05-17T19:58:47.310Z,18.98
2023-05-17T20:01:14.731Z,13.00
2023-05-17T20:03:42.246Z,9.43
2023-05-17T20:06:14.295Z,15.80
2023-05-17T20:08:42.613Z,12.00
2023-05-17T20:11:11.034Z,17.30
2023-05-17T20:18:43.748Z,10.40
2023-05-17T20:21:18.271Z,30.35
2023-05-17T20:23:47.125Z,22.70
2023-05-17T20:26:19.290Z,15.80
2023-05-17T20:28:46.787Z,14.93
2023-05-17T20:31:14.881Z,19.13
2023-05-17T20:36:14.270Z,12.95
2023-05-17T20:38:43.210Z,17.60
2023-05-17T20:41:11.245Z,19.13
2023-05-17T20:43:38.755Z,21.42
2023-05-17T20:46:09.806Z,33.35
2023-05-17T20:48:39.807Z,28.35
2023-05-17T20:51:07.335Z,22.35
2023-05-17T20:53:37.018Z,20.25
2023-05-17T20:56:05.146Z,15.10
2023-05-17T20:58:33.258Z,21.67
2023-05-17T21:01:01.379Z,13.85
2023-05-17T21:06:05.452Z,18.70
2023-05-17T21:08:34.224Z,26.00
2023-05-17T21:11:01.750Z,19.02
2023-05-17T21:13:29.846Z,26.83
2023-05-17T21:15:57.608Z,22.75
2023-05-17T21:18:25.120Z,25.27
2023-05-17T21:20:53.761Z,19.35
2023-05-17T21:23:21.277Z,25.27
2023-05-17T21:25:49.263Z,31.40
2023-05-17T21:30:44.088Z,18.23
2023-05-17T21:33:11.706Z,24.02
2023-05-17T21:35:39.146Z,31.40
2023-05-17T21:38:06.965Z,27.80
2023-05-17T21:40:34.562Z,23.70
2023-05-17T21:43:02.060Z,33.47
2023-05-17T21:45:31.700Z,26.20
2023-05-17T21:47:59.550Z,23.65
2023-05-17T21:50:27.093Z,19.88
2023-05-17T21:52:54.514Z,22.67
2023-05-17T21:55:22.227Z,27.67
2023-05-17T21:57:49.795Z,29.13
2023-05-17T22:00:18.035Z,21.00
2023-05-17T22:02:46.505Z,22.00
2023-05-17T22:05:14.274Z,18.33
2023-05-17T22:07:46.978Z,21.23
2023-05-17T22:10:14.595Z,23.48
2023-05-17T22:12:42.120Z,18.02
2023-05-17T22:15:13.761Z,24.67
2023-05-17T22:17:51.309Z,23.85
2023-05-17T22:20:23.017Z,17.27
2023-05-17T22:22:50.539Z,16.08
2023-05-17T22:25:20.263Z,24.85
2023-05-17T22:27:49.006Z,27.35
2023-05-17T22:30:16.947Z,16.38
2023-05-17T22:32:44.555Z,21.27
2023-05-17T22:35:12.165Z,13.48
2023-05-17T22:37:42.552Z,17.67
2023-05-17T22:40:10.980Z,15.07
2023-05-17T22:42:38.571Z,24.27
2023-05-17T22:45:06.647Z,15.65
2023-05-17T22:47:34.595Z,13.85
2023-05-17T22:50:03.307Z,17.95
2023-05-17T22:52:32.846Z,17.65
2023-05-17T22:55:00.355Z,12.23
2023-05-17T22:57:28.008Z,18.15
2023-05-17T22:59:55.539Z,21.05
2023-05-17T23:02:23.041Z,13.43
2023-05-17T23:04:50.485Z,22.05
2023-05-17T23:07:18.150Z,19.83
2023-05-17T23:09:45.608Z,17.25
2023-05-17T23:12:14.344Z,20.27
2023-05-17T23:14:42.642Z,23.80
2023-05-17T23:17:10.540Z,14.85
2023-05-17T23:19:40.679Z,15.82
2023-05-17T23:22:08.440Z,16.30
2023-05-17T23:24:38.903Z,10.38
2023-05-17T23:27:10.398Z,18.33
2023-05-17T23:29:41.601Z,19.60
2023-05-17T23:32:09.155Z,16.30
2023-05-17T23:34:36.848Z,27.15
2023-05-17T23:37:04.291Z,18.02
2023-05-17T23:39:34.102Z,27.50
2023-05-17T23:42:01.511Z,15.60
2023-05-17T23:44:28.976Z,21.90
2023-05-17T23:46:56.809Z,17.23
2023-05-17T23:49:24.306Z,19.98
2023-05-17T23:51:51.891Z,19.58
2023-05-17T23:54:19.372Z,15.65
2023-05-17T23:56:46.853Z,23.73
2023-05-17T23:59:14.543Z,41.72
